Time;durP1;ratioP1;P1;durP2;ratioP2;P2;SDS_P1;SDS_P2;PMS_P1;PMS_P2;Temp;Humidity;BMP_temperature;BMP_pressure;BME280_temperature;BME280_humidity;BME280_pressure;Samples;Min_cycle;Max_cycle;Signal;HPM_P1;HPM_P2
2023/04/16 00:01:50;;;;;;;36.23;27.40;;;;;;;9.90;100.00;100955.03;4906695;29;20424;-79
2023/04/16 00:04:20;;;;;;;35.23;26.70;;;;;;;9.78;100.00;100948.47;4897679;29;20457;-79
2023/04/16 00:06:49;;;;;;;32.43;25.03;;;;;;;9.69;100.00;100955.06;4907934;29;20490;-80
2023/04/16 00:09:19;;;;;;;38.20;27.60;;;;;;;9.66;100.00;100955.47;4894177;29;20476;-80
2023/04/16 00:11:50;;;;;;;40.58;28.40;;;;;;;9.81;100.00;100956.22;4887087;29;20461;-80
2023/04/16 00:14:19;;;;;;;35.60;26.23;;;;;;;9.68;100.00;100964.22;4888973;29;20214;-80
2023/04/16 00:16:48;;;;;;;33.05;25.98;;;;;;;9.78;100.00;100962.00;4887783;29;20448;-78
2023/04/16 00:19:23;;;;;;;33.37;25.03;;;;;;;9.66;100.00;100968.97;4906841;29;20228;-79
2023/04/16 00:21:56;;;;;;;40.50;29.50;;;;;;;9.68;100.00;100966.91;4892975;29;20435;-80
2023/04/16 00:24:32;;;;;;;38.57;29.30;;;;;;;9.78;100.00;100970.09;4915944;28;20411;-80
2023/04/16 00:27:08;;;;;;;36.50;28.83;;;;;;;9.66;100.00;100966.25;4921575;28;20476;-79
2023/04/16 00:29:39;;;;;;;38.23;29.00;;;;;;;9.60;100.00;100964.31;4919901;28;20503;-80
2023/04/16 00:32:10;;;;;;;37.63;29.40;;;;;;;9.57;100.00;100964.72;4886878;29;20429;-79
2023/04/16 00:34:55;;;;;;;37.90;27.90;;;;;;;9.55;100.00;100967.63;4919605;28;20207;-80
2023/04/16 00:37:33;;;;;;;47.17;29.90;;;;;;;9.57;100.00;100970.13;4915251;29;20208;-79
2023/04/16 00:40:09;;;;;;;32.03;28.60;;;;;;;9.62;100.00;100972.25;4920951;28;20296;-78
2023/04/16 00:42:40;;;;;;;38.17;27.60;;;;;;;9.66;100.00;100958.16;4914099;28;20191;-78
2023/04/16 00:45:14;;;;;;;38.45;28.33;;;;;;;9.65;100.00;100966.44;4918129;29;20470;-78
2023/04/16 00:47:44;;;;;;;40.97;28.65;;;;;;;9.69;100.00;100967.72;4914358;29;20196;-78
2023/04/16 00:50:16;;;;;;;40.88;30.90;;;;;;;9.72;100.00;100968.19;4895940;29;20233;-79
2023/04/16 00:52:48;;;;;;;34.77;28.17;;;;;;;9.72;100.00;100973.59;4889975;29;20211;-79
2023/04/16 00:55:25;;;;;;;46.00;28.63;;;;;;;9.58;100.00;100966.41;4916644;29;20400;-78
2023/04/16 00:58:08;;;;;;;40.70;30.50;;;;;;;9.52;100.00;100965.31;4907812;29;20484;-80
2023/04/16 01:00:43;;;;;;;33.63;26.92;;;;;;;9.56;100.00;100965.75;4899430;29;20208;-77
2023/04/16 01:03:15;;;;;;;36.13;28.05;;;;;;;9.54;100.00;100970.50;4910048;29;20212;-79
2023/04/16 01:05:48;;;;;;;37.33;27.98;;;;;;;9.52;100.00;100968.00;4903002;29;20222;-78
2023/04/16 01:08:27;;;;;;;29.90;24.73;;;;;;;9.73;100.00;100971.72;4904897;29;20325;-78
2023/04/16 01:11:03;;;;;;;36.17;25.80;;;;;;;9.68;100.00;100971.47;4900386;29;20260;-80
2023/04/16 01:13:38;;;;;;;30.65;26.23;;;;;;;10.04;100.00;100978.44;4913335;29;20903;-79
2023/04/16 01:16:09;;;;;;;40.20;28.50;;;;;;;9.92;100.00;100979.97;4919808;29;20275;-80
2023/04/16 01:18:39;;;;;;;33.93;25.93;;;;;;;9.74;100.00;100982.31;4917898;29;20486;-79
2023/04/16 01:21:10;;;;;;;37.72;28.08;;;;;;;9.81;100.00;100983.22;4915985;29;20431;-79
2023/04/16 01:23:39;;;;;;;36.97;28.23;;;;;;;9.68;100.00;100988.53;4916280;29;20245;-79
2023/04/16 01:26:08;;;;;;;36.03;25.97;;;;;;;9.58;100.00;100993.41;4913129;29;20515;-79
2023/04/16 01:28:37;;;;;;;34.47;24.00;;;;;;;9.90;100.00;100997.44;4908645;29;20480;-78
2023/04/16 01:31:06;;;;;;;40.30;24.70;;;;;;;9.91;100.00;100999.13;4910284;29;20614;-78
2023/04/16 01:33:56;;;;;;;32.15;25.63;;;;;;;9.55;100.00;100988.38;4913562;29;20295;-78
2023/04/16 01:36:26;;;;;;;34.73;24.80;;;;;;;9.48;100.00;100998.31;4913912;29;20256;-78
2023/04/16 01:38:56;;;;;;;28.63;23.17;;;;;;;9.64;100.00;101003.44;4913616;29;20468;-78
2023/04/16 01:41:25;;;;;;;27.13;22.25;;;;;;;10.00;100.00;100998.78;4913680;29;20236;-78
2023/04/16 01:43:54;;;;;;;39.17;27.70;;;;;;;9.68;100.00;100996.63;4914774;29;20201;-80
2023/04/16 01:46:29;;;;;;;31.50;23.93;;;;;;;9.48;100.00;100993.75;4897367;29;20704;-79
2023/04/16 01:48:58;;;;;;;33.00;24.85;;;;;;;9.40;100.00;100996.56;4912486;29;20492;-79
2023/04/16 01:51:29;;;;;;;36.95;26.13;;;;;;;9.39;100.00;100996.75;4896154;29;20222;-80
2023/04/16 01:53:58;;;;;;;34.10;23.88;;;;;;;9.58;100.00;100998.81;4910025;29;20215;-80
2023/04/16 01:56:28;;;;;;;29.70;25.60;;;;;;;9.43;100.00;101006.16;4892024;29;20286;-80
2023/04/16 01:58:57;;;;;;;35.85;24.80;;;;;;;9.33;100.00;101001.06;4888642;29;20311;-79
2023/04/16 02:01:31;;;;;;;34.70;25.47;;;;;;;9.33;100.00;101006.47;4883909;29;20216;-78
2023/04/16 02:04:00;;;;;;;33.72;25.58;;;;;;;9.33;100.00;101009.16;4902115;29;20490;-79
2023/04/16 02:06:31;;;;;;;30.95;22.77;;;;;;;9.29;100.00;101004.34;4896164;29;20208;-80
2023/04/16 02:09:00;;;;;;;34.92;25.45;;;;;;;9.60;100.00;101004.84;4902386;29;20251;-81
2023/04/16 02:11:31;;;;;;;34.95;25.65;;;;;;;9.38;100.00;101008.59;4914915;29;20191;-81
2023/04/16 02:14:01;;;;;;;33.33;25.25;;;;;;;9.30;100.00;101017.63;4910447;29;20199;-78
2023/04/16 02:16:30;;;;;;;31.98;25.25;;;;;;;9.30;100.00;101012.22;4882996;29;20570;-78
2023/04/16 02:19:06;;;;;;;35.63;26.67;;;;;;;9.33;100.00;101019.97;4895428;29;20227;-78
2023/04/16 02:21:38;;;;;;;37.80;26.05;;;;;;;9.35;100.00;101022.47;4898728;29;20228;-80
2023/04/16 02:24:08;;;;;;;35.22;24.83;;;;;;;9.24;100.00;101020.28;4886981;29;20690;-81
2023/04/16 02:26:37;;;;;;;35.90;24.90;;;;;;;9.24;100.00;101018.41;4901263;29;20215;-80
2023/04/16 02:29:13;;;;;;;38.50;26.95;;;;;;;9.23;100.00;101015.91;4873094;29;20227;-79
2023/04/16 02:31:45;;;;;;;32.95;24.95;;;;;;;9.49;100.00;101024.28;4885543;29;20219;-79
2023/04/16 02:34:15;;;;;;;34.55;25.15;;;;;;;9.32;100.00;101026.38;4886730;29;20200;-78
2023/04/16 02:36:46;;;;;;;35.63;27.50;;;;;;;9.28;100.00;101026.97;4901908;29;20280;-80
2023/04/16 02:39:15;;;;;;;38.08;28.35;;;;;;;9.30;100.00;101033.84;4890444;29;20310;-78
2023/04/16 02:41:44;;;;;;;33.10;26.77;;;;;;;9.19;100.00;101025.41;4888906;29;20306;-79
2023/04/16 02:44:14;;;;;;;31.58;26.40;;;;;;;9.13;100.00;101027.00;4903688;29;20195;-79
2023/04/16 02:46:43;;;;;;;34.25;26.77;;;;;;;9.19;100.00;101028.09;4919258;28;20231;-79
2023/04/16 02:49:12;;;;;;;39.42;27.25;;;;;;;9.15;100.00;101025.78;4907356;29;20219;-79
2023/04/16 02:51:41;;;;;;;35.70;27.23;;;;;;;9.25;100.00;101027.31;4896958;29;20209;-79
2023/04/16 02:54:12;;;;;;;38.67;28.65;;;;;;;9.28;100.00;101029.66;4919421;29;20311;-80
2023/04/16 02:56:41;;;;;;;48.60;30.13;;;;;;;9.21;100.00;101034.97;4905447;28;20422;-79
2023/04/16 02:59:10;;;;;;;40.25;28.15;;;;;;;9.18;100.00;101029.97;4919391;28;20225;-79
2023/04/16 03:01:39;;;;;;;35.38;26.27;;;;;;;9.16;100.00;101035.53;4917698;28;20244;-79
2023/04/16 03:04:09;;;;;;;37.92;28.52;;;;;;;9.07;100.00;101041.25;4904588;28;20186;-78
2023/04/16 03:06:38;;;;;;;37.88;28.60;;;;;;;9.02;100.00;101039.13;4916982;28;20221;-80
2023/04/16 03:09:08;;;;;;;42.53;30.92;;;;;;;9.23;100.00;101037.50;4912807;29;20240;-78
2023/04/16 03:11:40;;;;;;;34.25;26.83;;;;;;;9.02;100.00;101035.56;4903237;29;20199;-79
2023/04/16 03:14:09;;;;;;;41.25;31.33;;;;;;;8.95;100.00;101040.91;4918152;29;20188;-77
2023/04/16 03:16:38;;;;;;;36.55;27.02;;;;;;;9.05;100.00;101040.63;4918035;29;20220;-79
2023/04/16 03:19:07;;;;;;;44.58;30.23;;;;;;;9.03;100.00;101048.88;4919763;29;20219;-78
2023/04/16 03:21:37;;;;;;;39.85;28.60;;;;;;;8.85;100.00;101056.53;4902585;29;20226;-79
2023/04/16 03:24:06;;;;;;;47.65;29.95;;;;;;;8.83;100.00;101058.59;4910039;29;20207;-79
2023/04/16 03:26:35;;;;;;;42.65;30.27;;;;;;;8.80;100.00;101052.72;4915350;29;20196;-79
2023/04/16 03:29:05;;;;;;;37.05;27.55;;;;;;;8.78;100.00;101054.75;4893622;29;20239;-78
2023/04/16 03:31:35;;;;;;;44.83;29.55;;;;;;;8.88;100.00;101055.31;4903659;29;20288;-80
2023/04/16 03:34:04;;;;;;;41.85;29.42;;;;;;;9.16;100.00;101054.44;4918615;29;20231;-80
2023/04/16 03:36:34;;;;;;;42.05;27.83;;;;;;;8.92;100.00;101054.75;4916923;29;20199;-79
2023/04/16 03:39:03;;;;;;;36.67;27.65;;;;;;;8.96;100.00;101053.34;4903358;29;20222;-79
2023/04/16 03:41:33;;;;;;;31.98;25.52;;;;;;;8.91;100.00;101061.19;4894225;29;20192;-79
2023/04/16 03:44:04;;;;;;;34.80;25.80;;;;;;;8.96;100.00;101058.75;4896309;29;20225;-78
2023/04/16 03:46:34;;;;;;;34.30;26.80;;;;;;;8.91;100.00;101069.28;4916798;29;20204;-78
2023/04/16 03:49:04;;;;;;;34.70;24.58;;;;;;;8.92;100.00;101057.47;4906352;28;20213;-79
2023/04/16 03:51:33;;;;;;;37.67;25.45;;;;;;;9.06;100.00;101058.47;4918877;28;20204;-79
2023/04/16 03:54:02;;;;;;;30.83;22.95;;;;;;;8.78;100.00;101063.69;4922136;28;20198;-80
2023/04/16 03:56:32;;;;;;;34.60;26.00;;;;;;;8.81;100.00;101066.00;4915809;29;20185;-79
2023/04/16 03:59:03;;;;;;;35.90;24.58;;;;;;;8.75;100.00;101072.19;4938019;23;20219;-80
2023/04/16 04:01:33;;;;;;;39.75;27.52;;;;;;;8.87;100.00;101077.94;4963956;28;20217;-82
2023/04/16 04:04:03;;;;;;;30.45;25.08;;;;;;;8.72;100.00;101075.22;4988076;28;20711;-81
2023/04/16 04:06:33;;;;;;;45.00;27.45;;;;;;;8.68;100.00;101079.31;4966361;28;20199;-82
2023/04/16 04:09:03;;;;;;;39.67;26.98;;;;;;;8.67;100.00;101080.34;4957409;28;20250;-82
2023/04/16 04:11:34;;;;;;;37.15;28.30;;;;;;;8.71;100.00;101082.47;4941622;29;20202;-80
2023/04/16 04:14:05;;;;;;;44.05;29.92;;;;;;;8.65;100.00;101091.34;4940868;29;20206;-82
2023/04/16 04:16:36;;;;;;;46.55;27.77;;;;;;;8.75;100.00;101093.75;4957908;28;20197;-80
2023/04/16 04:19:05;;;;;;;36.22;27.25;;;;;;;8.64;100.00;101095.06;4950180;29;20223;-81
2023/04/16 04:21:35;;;;;;;45.53;29.23;;;;;;;8.84;100.00;101091.81;4964696;28;20202;-82
2023/04/16 04:24:06;;;;;;;42.30;26.63;;;;;;;8.87;100.00;101097.66;4945628;29;20206;-81
2023/04/16 04:26:35;;;;;;;39.45;30.30;;;;;;;8.93;100.00;101102.31;4945117;29;20225;-81
2023/04/16 04:29:04;;;;;;;43.25;27.33;;;;;;;8.78;100.00;101098.78;4968250;29;20218;-79
2023/04/16 04:31:35;;;;;;;43.72;29.85;;;;;;;8.99;100.00;101104.28;4972633;29;20194;-79
2023/04/16 04:34:04;;;;;;;43.70;28.25;;;;;;;9.07;100.00;101098.78;4954790;29;20273;-81
2023/04/16 04:36:33;;;;;;;40.88;26.55;;;;;;;8.93;100.00;101107.72;4969214;28;20187;-81
2023/04/16 04:39:02;;;;;;;46.15;29.92;;;;;;;8.81;100.00;101103.78;4960220;29;20663;-81
2023/04/16 04:41:31;;;;;;;45.13;26.88;;;;;;;8.95;100.00;101108.38;4954437;29;20237;-81
2023/04/16 04:44:00;;;;;;;50.00;30.33;;;;;;;8.86;100.00;101106.78;4966351;29;20210;-81
2023/04/16 04:46:29;;;;;;;43.13;26.25;;;;;;;9.31;100.00;101115.69;4950032;28;20186;-80
2023/04/16 04:48:59;;;;;;;47.22;29.33;;;;;;;8.88;100.00;101112.84;4969711;29;20217;-80
2023/04/16 04:51:29;;;;;;;45.05;28.52;;;;;;;8.72;100.00;101118.41;4957343;29;20196;-80
2023/04/16 04:53:58;;;;;;;35.33;27.17;;;;;;;8.96;100.00;101120.84;4971865;29;20193;-80
2023/04/16 04:56:27;;;;;;;38.53;26.52;;;;;;;8.75;100.00;101115.34;4969025;29;20220;-84
2023/04/16 04:58:56;;;;;;;42.55;27.40;;;;;;;8.70;100.00;101118.59;4958784;28;20191;-80
2023/04/16 05:01:26;;;;;;;44.20;29.45;;;;;;;8.67;100.00;101131.59;4935541;29;20197;-81
2023/04/16 05:03:55;;;;;;;43.00;30.40;;;;;;;8.86;100.00;101125.66;4933870;29;20207;-81
2023/04/16 05:06:25;;;;;;;43.75;30.52;;;;;;;8.81;100.00;101127.28;4955863;29;20189;-81
2023/04/16 05:08:57;;;;;;;46.83;31.63;;;;;;;9.12;100.00;101128.75;4945577;29;20214;-83
2023/04/16 05:11:26;;;;;;;45.70;28.27;;;;;;;8.83;100.00;101134.16;4950523;29;20252;-78
2023/04/16 05:13:55;;;;;;;37.75;28.98;;;;;;;8.95;100.00;101138.06;4958812;29;20574;-81
2023/04/16 05:16:24;;;;;;;46.90;29.38;;;;;;;9.00;100.00;101135.66;4955666;28;20195;-81
2023/04/16 05:18:54;;;;;;;37.05;25.45;;;;;;;9.45;100.00;101144.53;4960118;29;20212;-81
2023/04/16 05:21:25;;;;;;;37.63;26.50;;;;;;;9.15;100.00;101144.56;4955147;29;20592;-82
2023/04/16 05:23:56;;;;;;;52.72;29.52;;;;;;;9.32;100.00;101147.09;4960398;29;20653;-82
2023/04/16 05:26:25;;;;;;;35.28;23.55;;;;;;;8.99;100.00;101146.63;4943921;29;20562;-85
2023/04/16 05:28:54;;;;;;;39.92;25.17;;;;;;;8.80;100.00;101152.56;4959924;29;20273;-80
2023/04/16 05:31:23;;;;;;;39.80;24.92;;;;;;;8.72;100.00;101153.47;4959610;29;20197;-81
2023/04/16 05:33:52;;;;;;;36.92;25.45;;;;;;;8.72;100.00;101153.47;4961315;29;20269;-80
2023/04/16 05:36:21;;;;;;;35.03;24.60;;;;;;;8.66;100.00;101155.06;4955077;29;20270;-81
2023/04/16 05:38:52;;;;;;;41.65;25.20;;;;;;;9.20;100.00;101156.69;4958112;29;20665;-79
2023/04/16 05:41:21;;;;;;;38.10;24.80;;;;;;;8.94;100.00;101163.38;4958703;29;20198;-83
2023/04/16 05:43:50;;;;;;;41.95;26.02;;;;;;;8.79;100.00;101165.22;4938673;29;20225;-80
2023/04/16 05:46:19;;;;;;;41.00;25.60;;;;;;;8.83;100.00;101163.00;4950147;29;20224;-81
2023/04/16 05:48:49;;;;;;;34.78;24.38;;;;;;;9.01;100.00;101158.91;4961259;29;20282;-82
2023/04/16 05:51:18;;;;;;;37.97;24.60;;;;;;;9.46;100.00;101165.13;4958499;29;20532;-80
2023/04/16 05:53:46;;;;;;;35.25;24.15;;;;;;;9.22;100.00;101170.81;4958541;29;20244;-83
2023/04/16 05:56:17;;;;;;;31.85;21.83;;;;;;;9.91;100.00;101167.56;4956866;29;20594;-80
2023/04/16 05:58:46;;;;;;;35.22;25.25;;;;;;;9.58;100.00;101169.84;4970512;29;20194;-79
2023/04/16 06:01:15;;;;;;;31.05;25.05;;;;;;;9.68;100.00;101166.88;4969222;28;20266;-79
2023/04/16 06:03:44;;;;;;;31.63;24.27;;;;;;;9.21;100.00;101179.94;4966989;29;20201;-79
2023/04/16 06:06:13;;;;;;;30.45;22.85;;;;;;;8.99;100.00;101184.44;4958104;29;20479;-81
2023/04/16 06:08:42;;;;;;;29.98;20.85;;;;;;;9.00;100.00;101180.72;4956576;29;20266;-81
2023/04/16 06:11:11;;;;;;;30.42;21.83;;;;;;;9.01;100.00;101179.66;4959007;29;20198;-81
2023/04/16 06:13:42;;;;;;;30.83;22.75;;;;;;;9.06;100.00;101188.88;4955535;29;20276;-80
2023/04/16 06:16:11;;;;;;;30.92;23.35;;;;;;;9.23;100.00;101178.75;4957967;29;20647;-81
2023/04/16 06:18:41;;;;;;;36.55;28.10;;;;;;;9.09;100.00;101188.53;4960231;28;20182;-79
2023/04/16 06:21:10;;;;;;;95.70;86.25;;;;;;;9.19;100.00;101188.25;4975812;28;20254;-80
2023/04/16 06:23:39;;;;;;;43.35;30.48;;;;;;;9.22;100.00;101189.72;4956176;29;20203;-80
2023/04/16 06:26:08;;;;;;;38.63;26.42;;;;;;;9.17;100.00;101195.69;4957561;28;20196;-82
2023/04/16 06:28:37;;;;;;;37.20;30.45;;;;;;;9.08;100.00;101197.66;4949424;29;20221;-80
2023/04/16 06:31:08;;;;;;;37.10;30.58;;;;;;;8.96;100.00;101203.66;4967496;29;20209;-82
2023/04/16 06:33:37;;;;;;;34.00;25.52;;;;;;;8.93;100.00;101199.50;4968361;29;20205;-82
2023/04/16 06:36:07;;;;;;;36.53;25.63;;;;;;;8.96;100.00;101198.28;4965076;29;20252;-81
2023/04/16 06:38:37;;;;;;;41.58;30.02;;;;;;;8.99;100.00;101196.06;4957458;28;20254;-82
2023/04/16 06:41:06;;;;;;;31.02;25.08;;;;;;;9.35;100.00;101209.66;4946464;29;20201;-82
2023/04/16 06:43:35;;;;;;;36.75;25.88;;;;;;;9.62;100.00;101210.03;4957858;29;20191;-80
2023/04/16 06:46:04;;;;;;;38.03;25.73;;;;;;;9.42;100.00;101209.75;4959497;28;20262;-79
2023/04/16 06:48:35;;;;;;;34.70;26.13;;;;;;;9.67;100.00;101208.44;4964802;28;20592;-81
2023/04/16 06:51:07;;;;;;;35.17;26.17;;;;;;;9.71;100.00;101211.59;4958067;29;20188;-82
2023/04/16 06:53:37;;;;;;;32.00;23.88;;;;;;;9.39;100.00;101212.84;4967280;29;20484;-81
2023/04/16 06:56:07;;;;;;;34.58;23.02;;;;;;;9.72;100.00;101219.53;4961342;29;20203;-81
2023/04/16 06:58:36;;;;;;;39.85;27.05;;;;;;;9.72;100.00;101219.53;4960326;29;20193;-82
2023/04/16 07:01:06;;;;;;;31.92;22.95;;;;;;;9.43;100.00;101223.09;4965614;29;20206;-82
2023/04/16 07:03:37;;;;;;;29.38;20.75;;;;;;;9.96;100.00;101224.59;4965602;29;20201;-81
2023/04/16 07:06:06;;;;;;;33.70;23.30;;;;;;;9.64;100.00;101219.59;4954676;29;20572;-83
2023/04/16 07:08:35;;;;;;;33.70;24.23;;;;;;;9.80;100.00;101224.81;4967321;28;20194;-83
2023/04/16 07:11:04;;;;;;;32.92;22.58;;;;;;;9.58;100.00;101225.78;4965035;29;20525;-80
2023/04/16 07:13:34;;;;;;;34.50;23.00;;;;;;;9.49;100.00;101233.13;4959638;29;20210;-83
2023/04/16 07:16:03;;;;;;;28.05;21.02;;;;;;;9.39;100.00;101224.47;4948119;29;20286;-81
2023/04/16 07:18:32;;;;;;;37.05;23.92;;;;;;;9.13;100.00;101222.22;4970306;28;20203;-84
2023/04/16 07:21:03;;;;;;;27.75;22.70;;;;;;;9.38;100.00;101236.31;4962116;28;20216;-82
2023/04/16 07:23:33;;;;;;;29.88;24.02;;;;;;;9.35;100.00;101241.22;4972649;29;20194;-81
2023/04/16 07:26:02;;;;;;;35.63;23.88;;;;;;;9.71;100.00;101239.47;4971006;29;20204;-81
2023/04/16 07:28:31;;;;;;;28.35;22.42;;;;;;;9.56;100.00;101249.44;4972045;29;20191;-80
2023/04/16 07:31:00;;;;;;;35.92;23.20;;;;;;;9.33;100.00;101244.13;4975305;29;20337;-79
2023/04/16 07:33:37;;;;;;;32.97;21.67;;;;;;;9.39;100.00;101250.66;4972872;29;20182;-81
2023/04/16 07:36:08;;;;;;;37.90;23.52;;;;;;;9.48;100.00;101247.69;4965531;29;20206;-81
2023/04/16 07:38:37;;;;;;;43.80;24.63;;;;;;;9.72;100.00;101256.50;4968607;28;20214;-81
2023/04/16 07:41:06;;;;;;;30.42;22.38;;;;;;;9.49;100.00;101248.50;4965621;29;20197;-84
2023/04/16 07:43:35;;;;;;;40.60;24.88;;;;;;;9.41;100.00;101256.69;4965928;28;20213;-80
2023/04/16 07:46:05;;;;;;;33.00;24.52;;;;;;;9.29;100.00;101259.03;4964922;28;20229;-81
2023/04/16 07:48:38;;;;;;;35.78;25.92;;;;;;;9.45;100.00;101266.94;4950804;29;20205;-79
2023/04/16 07:51:10;;;;;;;32.33;25.63;;;;;;;9.35;100.00;101262.84;4963057;29;20675;-81
2023/04/16 07:53:39;;;;;;;35.58;26.10;;;;;;;9.33;100.00;101263.03;4964427;29;21046;-80
2023/04/16 07:56:09;;;;;;;40.20;28.10;;;;;;;9.40;100.00;101271.22;4953588;29;20554;-80
2023/04/16 07:58:38;;;;;;;32.85;25.45;;;;;;;9.33;100.00;101267.59;4962199;29;20648;-79
2023/04/16 08:01:07;;;;;;;35.20;27.15;;;;;;;9.29;100.00;101271.69;4959422;29;20230;-80
2023/04/16 08:03:36;;;;;;;38.72;30.55;;;;;;;9.24;100.00;101272.25;4943907;29;20282;-81
2023/04/16 08:06:05;;;;;;;35.97;25.45;;;;;;;9.25;100.00;101267.66;4960916;29;20190;-81
2023/04/16 08:08:36;;;;;;;36.50;30.45;;;;;;;9.28;100.00;101273.56;4957685;29;20680;-83
2023/04/16 08:11:05;;;;;;;41.20;32.50;;;;;;;9.34;100.00;101271.97;4958634;29;20222;-82
2023/04/16 08:13:35;;;;;;;39.40;27.40;;;;;;;9.34;100.00;101283.63;4948497;29;20228;-80
2023/04/16 08:16:04;;;;;;;38.47;29.67;;;;;;;9.22;100.00;101282.38;4955089;29;20205;-79
2023/04/16 08:18:33;;;;;;;36.72;27.20;;;;;;;9.25;100.00;101275.75;4959528;28;20201;-79
2023/04/16 08:21:02;;;;;;;39.15;28.77;;;;;;;9.22;100.00;101282.38;4949504;28;20231;-79
2023/04/16 08:23:31;;;;;;;38.15;24.27;;;;;;;9.22;100.00;101286.94;4967867;29;20200;-80
2023/04/16 08:26:02;;;;;;;32.90;25.25;;;;;;;9.33;100.00;101286.50;4965260;28;20201;-80
2023/04/16 08:28:32;;;;;;;35.53;22.60;;;;;;;9.23;100.00;101291.31;4956181;29;20214;-81
2023/04/16 08:31:01;;;;;;;34.63;25.42;;;;;;;9.18;100.00;101293.75;4950219;28;20225;-80
2023/04/16 08:33:30;;;;;;;35.05;24.65;;;;;;;9.16;100.00;101297.47;4958222;29;20273;-81
2023/04/16 08:35:59;;;;;;;30.52;20.60;;;;;;;9.22;100.00;101298.59;4949086;29;20201;-79
2023/04/16 08:38:28;;;;;;;37.17;22.42;;;;;;;9.52;100.00;101304.88;4952457;28;20202;-81
2023/04/16 08:41:02;;;;;;;29.23;21.15;;;;;;;9.37;100.00;101304.84;4955719;29;20221;-80
2023/04/16 08:43:36;;;;;;;30.98;21.00;;;;;;;9.54;100.00;101303.66;4934748;29;20312;-81
2023/04/16 08:46:06;;;;;;;36.28;24.10;;;;;;;9.27;100.00;101312.38;4966372;29;20232;-82
2023/04/16 08:48:37;;;;;;;33.25;23.70;;;;;;;9.28;100.00;101313.22;4948395;29;20210;-83
2023/04/16 08:51:10;;;;;;;29.85;21.65;;;;;;;9.29;100.00;101317.59;4946370;29;20216;-80
2023/04/16 08:53:49;;;;;;;33.70;24.08;;;;;;;9.32;100.00;101317.22;4956694;28;20190;-81
2023/04/16 08:56:22;;;;;;;30.20;20.70;;;;;;;9.67;100.00;101321.09;4951705;29;20282;-81
2023/04/16 08:58:57;;;;;;;36.90;21.35;;;;;;;10.19;100.00;101321.00;4951200;29;20198;-82
2023/04/16 09:01:26;;;;;;;32.80;23.30;;;;;;;10.48;100.00;101330.91;4958968;29;20251;-82
2023/04/16 09:03:56;;;;;;;25.30;20.23;;;;;;;10.32;100.00;101326.56;4959069;29;20719;-83
2023/04/16 09:06:27;;;;;;;24.50;19.80;;;;;;;10.31;100.00;101328.41;4957746;29;20976;-83
2023/04/16 09:09:06;;;;;;;24.47;19.10;;;;;;;10.15;100.00;101330.47;4959305;29;20201;-83
2023/04/16 09:24:19;;;;;;;27.77;18.37;;;;;;;10.48;100.00;101342.56;4909990;29;20440;-81
2023/04/16 09:27:00;;;;;;;23.07;18.70;;;;;;;10.31;100.00;101347.34;4909344;29;20430;-82
2023/04/16 09:36:11;;;;;;;26.93;20.80;;;;;;;9.80;100.00;101354.56;4905314;29;20503;-81
2023/04/16 09:39:00;;;;;;;22.90;19.30;;;;;;;9.83;100.00;101350.63;4914644;29;20445;-82
2023/04/16 09:41:37;;;;;;;22.25;17.80;;;;;;;9.90;100.00;101355.13;4945788;29;20526;-82
2023/04/16 09:44:07;;;;;;;28.87;19.20;;;;;;;9.92;100.00;101352.22;4946316;29;20297;-83
2023/04/16 09:46:43;;;;;;;30.30;20.80;;;;;;;9.92;100.00;101350.34;4957116;29;20436;-81
2023/04/16 09:49:41;;;;;;;27.17;20.90;;;;;;;10.06;100.00;101359.50;4954558;29;20454;-82
2023/04/16 09:52:16;;;;;;;25.03;19.87;;;;;;;10.16;100.00;101370.06;4930152;29;20443;-82
2023/04/16 09:54:52;;;;;;;27.37;19.00;;;;;;;10.08;100.00;101360.13;4939900;29;20445;-84
2023/04/16 09:57:27;;;;;;;25.73;21.15;;;;;;;10.39;100.00;101358.09;4941884;29;20436;-81
2023/04/16 10:00:03;;;;;;;30.27;21.17;;;;;;;10.45;100.00;101367.31;4983887;23;21170;-84
2023/04/16 10:02:34;;;;;;;29.00;19.50;;;;;;;10.29;100.00;101360.25;4998311;28;20418;-82
2023/04/16 10:05:15;;;;;;;24.13;20.57;;;;;;;10.34;100.00;101363.22;4996192;28;20608;-84
2023/04/16 10:07:45;;;;;;;28.00;21.30;;;;;;;10.39;100.00;101370.75;4994005;28;20426;-84
2023/04/16 10:10:18;;;;;;;30.70;20.30;;;;;;;10.43;100.00;101366.66;4988765;28;20433;-85
2023/04/16 10:12:51;;;;;;;29.53;20.40;;;;;;;10.40;100.00;101372.44;4987339;28;20423;-81
2023/04/16 10:15:23;;;;;;;28.13;18.83;;;;;;;10.89;100.00;101370.69;4948959;28;20424;-83
2023/04/16 10:17:53;;;;;;;26.50;20.43;;;;;;;11.17;100.00;101375.38;4981393;28;20412;-83
2023/04/16 10:20:24;;;;;;;28.67;21.50;;;;;;;11.00;100.00;101379.34;4981086;28;20442;-83
2023/04/16 10:22:55;;;;;;;37.43;24.90;;;;;;;10.67;100.00;101385.25;4980845;28;20398;-82
2023/04/16 10:25:28;;;;;;;28.47;19.43;;;;;;;10.89;100.00;101381.53;4968136;28;20450;-82
2023/04/16 10:28:00;;;;;;;25.73;20.83;;;;;;;10.61;100.00;101379.75;4976649;28;20433;-83
2023/04/16 10:30:31;;;;;;;29.50;21.17;;;;;;;10.67;100.00;101384.41;4978886;28;20513;-82
2023/04/16 10:33:04;;;;;;;38.20;28.77;;;;;;;10.54;100.00;101382.41;4956869;28;20413;-83
2023/04/16 10:36:13;;;;;;;39.70;29.57;;;;;;;10.56;100.00;101382.19;4971099;29;20473;-83
2023/04/16 10:38:47;;;;;;;43.93;33.23;;;;;;;10.82;100.00;101387.91;4967669;29;20426;-83
2023/04/16 10:41:21;;;;;;;75.90;68.17;;;;;;;10.97;100.00;101382.44;4972245;28;20429;-83
2023/04/16 10:43:53;;;;;;;50.03;44.77;;;;;;;11.09;100.00;101389.03;4977309;28;20462;-82
2023/04/16 10:46:23;;;;;;;44.33;33.97;;;;;;;11.87;100.00;101380.72;4968168;28;20410;-83
2023/04/16 10:48:55;;;;;;;36.87;32.93;;;;;;;11.49;100.00;101391.06;4965083;29;20501;-82
2023/04/16 10:51:28;;;;;;;53.40;47.53;;;;;;;11.77;100.00;101389.22;4970172;28;20505;-83
2023/04/16 10:54:02;;;;;;;28.33;22.23;;;;;;;11.51;100.00;101394.44;4969442;28;20736;-84
2023/04/16 10:56:33;;;;;;;23.47;20.17;;;;;;;11.82;100.00;101395.91;4960560;29;20438;-83
2023/04/16 10:59:06;;;;;;;32.23;23.37;;;;;;;12.01;99.34;101390.63;4966858;28;20456;-83
2023/04/16 11:01:37;;;;;;;31.83;24.17;;;;;;;11.80;97.17;101395.28;4970689;28;20441;-82
2023/04/16 11:04:27;;;;;;;39.50;29.97;;;;;;;12.24;99.64;101401.22;4957736;29;20451;-82
2023/04/16 11:07:15;;;;;;;27.23;21.00;;;;;;;12.38;94.86;101394.81;4973369;28;20452;-83
2023/04/16 11:10:04;;;;;;;22.23;19.60;;;;;;;11.92;96.25;101397.25;4971549;28;20402;-83
2023/04/16 11:12:36;;;;;;;27.90;21.10;;;;;;;11.90;98.10;101398.50;4954438;28;20449;-83
2023/04/16 11:15:12;;;;;;;25.30;20.93;;;;;;;11.69;98.97;101402.91;4970233;29;20443;-82
2023/04/16 11:17:43;;;;;;;26.13;19.03;;;;;;;12.12;98.26;101405.50;4967444;29;20438;-82
2023/04/16 11:20:19;;;;;;;22.03;19.00;;;;;;;11.96;99.53;101398.53;4967008;28;20440;-83
2023/04/16 11:22:49;;;;;;;31.70;23.73;;;;;;;11.66;99.37;101408.72;4972089;29;20965;-83
2023/04/16 11:25:23;;;;;;;30.27;25.00;;;;;;;11.42;100.00;101406.44;4966565;29;20856;-83
2023/04/16 11:27:53;;;;;;;28.63;23.70;;;;;;;11.14;100.00;101402.81;4965966;29;20476;-83
2023/04/16 11:30:32;;;;;;;52.17;35.70;;;;;;;11.07;100.00;101401.94;4966749;28;20486;-83
2023/04/16 11:33:03;;;;;;;21.77;17.53;;;;;;;11.36;100.00;101412.63;4965967;29;20780;-84
2023/04/16 11:35:32;;;;;;;24.13;21.53;;;;;;;11.76;100.00;101411.94;4966237;29;20451;-83
2023/04/16 11:38:01;;;;;;;30.10;23.70;;;;;;;11.50;100.00;101414.44;4948210;29;20924;-83
2023/04/16 11:40:31;;;;;;;24.30;19.80;;;;;;;11.55;100.00;101417.38;4963395;28;20532;-83
2023/04/16 11:43:03;;;;;;;32.20;24.80;;;;;;;11.35;100.00;101416.38;4954722;29;20410;-83
2023/04/16 11:45:34;;;;;;;31.67;25.77;;;;;;;11.54;100.00;101415.72;4947892;29;20449;-83